Latest Coastal Weather Observations for Warrnambool

IDV60701

Issued at 11:05 am EST Friday 18 April 2014 (issued every 10 minutes, with the page automatically refreshed every 10 minutes)

About coastal observations | Map of coastal stations | Coastal observations for VIC | Marine services | Other Formats
Station Details ID: 090186 Name: WARRNAMBOOL AIRPORT NDB Lat: -38.29 Lon: 142.45 Height: 70.8 m
Data from the previous 72 hours. | See also: Recent months at Warrnambool
Date/Time
EST
Temp

°C
Wind Pressure Rain
since 9am
mm
Weather Cloud Vis
km
Sea
Height
m
Swell
Dir
 
Speed
knots
Gust
knots
hPa Trend Height
m
Period
s
Dir
18/11:00am 16.2 SW 21 26 1018.4 - 0.0 - - - - - - -
18/10:30am 15.7 SW 21 28 1018.3 - 0.0 - - - - - - -
18/10:00am 15.5 SW 18 24 1018.0 - 0.0 - - - - - - -
18/09:30am 14.7 SW 19 27 1017.7 - 0.0 - - - - - - -
18/09:00am 13.9 SW 18 24 1017.4 - 3.8 - - - - - - -
18/08:30am 12.9 SW 14 21 1016.9 - 3.8 - - - - - - -
18/08:02am 12.7 WSW 15 26 1016.6 - 3.8 - - - - - - -
18/08:00am 12.6 WSW 14 23 1016.5 - 3.6 - - - - - - -
18/07:30am 12.5 WSW 15 19 1015.9 - 2.0 - - - - - - -
18/07:00am 14.4 W 16 22 1015.3 - 0.8 - - - - - - -
18/06:30am 14.1 NW 13 17 1014.6 - 0.2 - - - - - - -
18/06:00am 14.2 NW 13 16 1014.1 - 0.2 - - - - - - -
18/05:30am 14.9 NW 14 17 1014.5 - 0.2 - - - - - - -
18/05:00am 14.1 NNW 10 13 1014.3 - 0.2 - - - - - - -
18/04:30am 13.9 NNW 10 12 1014.4 - 0.2 - - - - - - -
18/04:00am 13.5 NW 10 13 1014.8 - 0.2 - - - - - - -
18/03:30am 12.4 N 8 10 1014.7 - 0.0 - - - - - - -
18/03:00am 10.6 N 7 9 1015.0 - 0.0 - - - - - - -
18/02:30am 9.7 N 7 8 1015.3 - 0.0 - - - - - - -
18/02:00am 9.7 N 8 9 1015.7 - 0.0 - - - - - - -
18/01:30am 9.5 N 8 9 1015.7 - 0.0 - - - - - - -
18/01:00am 9.8 N 10 11 1016.1 - 0.0 - - - - - - -
18/12:30am 9.1 N 8 9 1016.5 - 0.0 - - - - - - -
18/12:00am 9.1 N 8 9 1016.9 - 0.0 - - - - - - -
 
Date/Time
EST
Temp

°C
Wind Pressure Rain
since 9am
mm
Weather Cloud Vis
km
Sea
Height
m
Swell
Dir
 
Speed
knots
Gust
knots
hPa Trend Height
m
Period
s
Dir
17/11:30pm 8.6 N 7 8 1017.6 - 0.0 - - - - - - -
17/11:00pm 8.8 N 8 9 1017.9 - 0.0 - - - - - - -
17/10:30pm 9.5 N 6 8 1018.4 - 0.0 - - - - - - -
17/10:00pm 9.3 N 6 7 1018.7 - 0.0 - - - - - - -
17/09:30pm 9.3 N 6 7 1018.5 - 0.0 - - - - - - -
17/09:00pm 9.7 N 5 6 1018.5 - 0.0 - - - - - - -
17/08:30pm 10.2 N 5 5 1018.6 - 0.0 - - - - - - -
17/08:00pm 10.2 NNW 3 5 1018.6 - 0.0 - - - - - - -
17/07:30pm 10.6 CALM 0 0 1018.5 - 0.0 - - - - - - -
17/07:00pm 11.5 CALM 0 0 1018.4 - 0.0 - - - - - - -
17/06:30pm 13.4 SW 3 3 1018.5 - 0.0 - - - - - - -
17/06:00pm 14.4 SW 5 8 1018.6 - 0.0 - - - - - - -
17/05:30pm 15.7 WSW 11 14 1018.4 - 0.0 - - - - - - -
17/05:00pm 16.8 SW 14 19 1018.4 - 0.0 - - - - - - -
17/04:30pm 16.6 SW 15 19 1018.5 - 0.0 - - - - - - -
17/04:00pm 17.4 SW 16 19 1018.3 - 0.0 - - - - - - -
17/03:30pm 20.9 W 12 15 1018.1 - 0.0 - - - - - - -
17/03:00pm 20.8 WNW 10 14 1018.2 - 0.0 - - - - - - -
17/02:30pm 21.7 NNW 8 13 1018.2 - 0.0 - - - - - - -
17/02:00pm 22.1 WNW 8 12 1018.4 - 0.0 - - - - - - -
17/01:30pm 21.7 WNW 10 15 1018.7 - 0.0 - - - - - - -
17/01:00pm 21.3 NNW 11 15 1019.1 - 0.0 - - - - - - -
17/12:30pm 21.6 NW 11 14 1019.4 - 0.0 - - - - - - -
17/12:00pm 20.9 NW 10 15 1019.9 - 0.0 - - - - - - -
17/11:30am 20.4 NW 10 13 1020.2 - 0.0 - - - - - - -
17/11:00am 20.5 N 8 11 1020.2 - 0.0 - - - - - - -
17/10:30am 19.3 N 8 11 1020.3 - 0.0 - - - - - - -
17/10:00am 18.2 N 8 12 1020.6 - 0.0 - - - - - - -
17/09:30am 15.7 N 8 9 1020.8 - 0.0 - - - - - - -
17/09:00am 13.5 N 8 10 1020.8 - 0.0 - - - - - - -
17/08:30am 11.5 N 9 10 1020.7 - 0.0 - - - - - - -
17/08:00am 9.8 N 8 9 1020.5 - 0.0 - - - - - - -
17/07:30am 8.4 N 9 9 1020.3 - 0.0 - - - - - - -
17/07:00am 7.0 N 8 9 1019.9 - 0.0 - - - - - - -
17/06:30am 7.0 N 8 8 1019.8 - 0.0 - - - - - - -
17/06:00am 7.4 N 8 9 1019.6 - 0.0 - - - - - - -
17/05:30am 8.1 N 8 9 1019.6 - 0.0 - - - - - - -
17/05:00am 7.9 N 8 9 1019.5 - 0.0 - - - - - - -
17/04:30am 8.2 N 8 8 1019.6 - 0.0 - - - - - - -
17/04:00am 7.8 NNE 6 7 1019.4 - 0.0 - - - - - - -
17/03:30am 8.3 N 5 6 1019.5 - 0.0 - - - - - - -
17/03:00am 7.9 N 6 7 1019.5 - 0.0 - - - - - - -
17/02:30am 7.8 N 6 7 1019.4 - 0.0 - - - - - - -
17/02:00am 9.0 N 5 6 1019.6 - 0.0 - - - - - - -
17/01:30am 8.4 N 5 6 1019.6 - 0.0 - - - - - - -
17/01:00am 9.3 N 5 6 1019.7 - 0.0 - - - - - - -
17/12:30am 8.9 N 7 7 1019.7 - 0.0 - - - - - - -
17/12:00am 9.4 NNW 4 5 1019.8 - 0.0 - - - - - - -
 
Date/Time
EST
Temp

°C
Wind Pressure Rain
since 9am
mm
Weather Cloud Vis
km
Sea
Height
m
Swell
Dir
 
Speed
knots
Gust
knots
hPa Trend Height
m
Period
s
Dir
16/11:30pm 10.1 NW 5 6 1020.0 - 0.0 - - - - - - -
16/11:00pm 10.5 W 4 5 1020.1 - 0.0 - - - - - - -
16/10:30pm 12.3 WNW 4 5 1020.0 - 0.0 - - - - - - -
16/10:00pm 12.5 NW 5 6 1020.1 - 0.0 - - - - - - -
16/09:30pm 12.4 NNW 3 4 1020.0 - 0.0 - - - - - - -
16/09:00pm 12.8 N 2 3 1019.9 - 0.0 - - - - - - -
16/08:30pm 12.7 NNE 3 4 1019.5 - 0.0 - - - - - - -
16/08:00pm 13.5 WNW 4 5 1019.6 - 0.0 - - - - - - -
16/07:30pm 13.8 W 6 6 1019.6 - 0.0 - - - - - - -
16/07:00pm 13.8 CALM 0 0 1019.4 - 0.0 - - - - - - -
16/06:30pm 14.1 WSW 3 4 1019.3 - 0.0 - - - - - - -
16/06:00pm 15.0 SW 4 5 1019.3 - 0.0 - - - - - - -
16/05:30pm 15.8 SW 7 9 1019.3 - 0.0 - - - - - - -
16/05:00pm 16.5 SSW 8 11 1019.2 - 0.0 - - - - - - -
16/04:30pm 18.0 SSW 9 13 1019.0 - 0.0 - - - - - - -
16/04:00pm 18.3 S 9 11 1018.7 - 0.0 - - - - - - -
16/03:30pm 19.1 S 8 9 1018.7 - 0.0 - - - - - - -
16/03:00pm 19.0 SW 4 6 1018.7 - 0.0 - - - - - - -
16/02:30pm 19.4 WSW 5 7 1018.5 - 0.0 - - - - - - -
16/02:00pm 20.2 N 4 6 1018.5 - 0.0 - - - - - - -
16/01:30pm 18.4 S 3 5 1019.0 - 0.0 - - - - - - -
16/01:00pm 18.4 NE 2 6 1019.2 - 0.0 - - - - - - -
16/12:30pm 17.8 NE 3 5 1019.5 - 0.0 - - - - - - -
16/12:00pm 17.1 NE 6 8 1019.9 - 0.0 - - - - - - -
16/11:30am 15.8 NNE 7 9 1020.1 - 0.0 - - - - - - -
16/11:00am 14.8 NE 7 9 1020.4 - 0.0 - - - - - - -
16/10:30am 13.6 NNE 9 11 1020.5 - 0.0 - - - - - - -
16/10:00am 13.0 NNE 8 10 1020.9 - 0.0 - - - - - - -
16/09:30am 12.2 NNE 7 9 1021.0 - 0.0 - - - - - - -
16/09:00am 11.2 N 7 8 1021.2 - 0.2 - - - - - - -
16/08:30am 10.5 NNE 8 10 1021.1 - 0.2 - - - - - - -
16/08:00am 9.1 N 6 8 1021.1 - 0.2 - - - - - - -
16/07:30am 7.8 NNE 6 7 1020.9 - 0.2 - - - - - - -
16/07:00am 7.2 N 6 7 1020.9 - 0.2 - - - - - - -
16/06:30am 5.9 N 5 6 1020.8 - 0.2 - - - - - - -
16/06:00am 5.6 N 5 6 1020.7 - 0.2 - - - - - - -
16/05:30am 5.7 N 5 6 1020.9 - 0.2 - - - - - - -
16/05:00am 5.7 N 4 5 1021.1 - 0.2 - - - - - - -
16/04:30am 5.2 NNW 4 5 1021.1 - 0.2 - - - - - - -
16/04:00am 5.3 N 3 4 1021.2 - 0.2 - - - - - - -
16/03:30am 5.3 NNW 4 5 1021.4 - 0.2 - - - - - - -
16/03:00am 5.7 NNW 3 4 1021.8 - 0.2 - - - - - - -
16/02:30am 6.7 NW 5 5 1022.0 - 0.2 - - - - - - -
16/02:00am 7.0 N 3 3 1022.1 - 0.2 - - - - - - -
16/01:30am 7.3 NE 2 4 1022.1 - 0.2 - - - - - - -
16/01:00am 7.4 CALM 0 0 1022.3 - 0.2 - - - - - - -
16/12:30am 9.2 N 3 4 1022.4 - 0.2 - - - - - - -
16/12:00am 10.0 NE 5 6 1022.6 - 0.2 - - - - - - -
 
Date/Time
EST
Temp

°C
Wind Pressure Rain
since 9am
mm
Weather Cloud Vis
km
Sea
Height
m
Swell
Dir
 
Speed
knots
Gust
knots
hPa Trend Height
m
Period
s
Dir
15/11:30pm 10.5 ENE 5 6 1023.0 - 0.2 - - - - - - -
15/11:00pm 11.0 E 4 5 1023.4 - 0.2 - - - - - - -
15/10:30pm 11.5 E 4 7 1023.4 - 0.2 - - - - - - -
15/10:00pm 11.8 ESE 5 7 1023.5 - 0.2 - - - - - - -
15/09:30pm 11.8 ESE 4 5 1023.7 - 0.2 - - - - - - -
15/09:00pm 12.0 SE 5 7 1023.5 - 0.2 - - - - - - -
15/08:30pm 12.1 SE 5 6 1023.7 - 0.2 - - - - - - -
15/08:00pm 11.6 SE 5 6 1023.8 - 0.2 - - - - - - -
15/07:30pm 11.9 SE 6 7 1023.8 - 0.2 - - - - - - -
15/07:00pm 12.7 SE 6 8 1023.5 - 0.2 - - - - - - -
15/06:30pm 13.3 SE 7 9 1023.3 - 0.2 - - - - - - -
15/06:00pm 14.1 SSE 8 10 1023.2 - 0.2 - - - - - - -
15/05:30pm 15.1 SSE 12 14 1022.9 - 0.2 - - - - - - -
15/05:00pm 15.9 SSE 12 15 1022.7 - 0.2 - - - - - - -
15/04:30pm 16.6 SSE 12 16 - - 0.2 - - - - - - -
15/04:00pm 17.6 SSE 12 16 1022.5 - 0.2 - - - - - - -
15/03:30pm 17.4 SE 12 16 1022.7 - 0.2 - - - - - - -
15/03:00pm 17.6 SE 11 15 1022.8 - 0.2 - - - - - - -
15/02:30pm 17.6 SSE 13 18 1022.8 - 0.2 - - - - - - -
15/02:00pm 17.6 SSE 14 17 1023.0 - 0.2 - - - - - - -
15/01:30pm 17.4 SSE 13 17 1023.3 - 0.2 - - - - - - -
15/01:00pm 17.9 SSE 12 15 1023.6 - 0.0 - - - - - - -
15/12:30pm 17.4 SSE 12 16 1024.0 - 0.0 - - - - - - -
15/12:00pm 17.5 SSE 10 13 1024.4 - 0.0 - - - - - - -
15/11:30am 16.8 SSE 11 17 1024.7 - 0.0 - - - - - - -

Other Formats:

Comma delimited format used in spreadsheet applications
http://www.bom.gov.au/fwo/IDV60701/IDV60701.94837.axf

JavaScript Object Notation format (JSON) in row-major order
http://www.bom.gov.au/fwo/IDV60701/IDV60701.94837.json